Westrac II — WCU4545 — position and weather

sailwx.info

Track history (hours):
 
Tides and Currents Weather Stations Pressure Air Temp Water Temp Dewpoint Dewpoint Depression Visibility Wind Speed Wind Dir Waves Ship Positions

Westrac II

Owner: WESTERN TOWBOAT COMPANY, SEATTLE, WA. More information available from US FCC via Universal Licensing System and Coast Guard Vessel Documentation Center.

Last reported at 2018-Feb-21 21:01 UTC. Time now 2018-Feb-21 21:24 UTC.
Position N 47°35' W 122°22'.

Type: Tug. MMSI: 366695810.

Date/timePositionNaut miles runAvg speedWind from/ knotsBaromVisibWave heightAir tempDewpointWater temp
2018-Feb-21 21:01N 47°35' W 122°22'1 2.8
2018-Feb-21 20:31N 47°34' W 122°21'0 1.0
2018-Feb-21 20:00N 47°34' W 122°21'0 0.7
2018-Feb-21 19:31N 47°34' W 122°21'0 0.0
2018-Feb-21 19:00N 47°34' W 122°21'1 2.4
2018-Feb-21 18:31N 47°33' W 122°21'1 0.1
2018-Feb-21 04:16N 47°34' W 122°21'1 3.6
2018-Feb-21 04:00N 47°33' W 122°20'1 2.2
2018-Feb-21 03:30N 47°34' W 122°21'1 2.5
2018-Feb-21 03:00N 47°35' W 122°22'1 1.6
2018-Feb-21 02:08N 47°34' W 122°21'0 0.0
2018-Feb-21 01:43N 47°34' W 122°21'0 0.0
2018-Feb-21 01:28N 47°34' W 122°21'0 0.0
2018-Feb-21 00:54N 47°34' W 122°21'0 0.0
2018-Feb-21 00:29N 47°34' W 122°21'0 0.0
2018-Feb-21 00:00N 47°34' W 122°21'0 0.0
2018-Feb-20 23:27N 47°34' W 122°21'0 0.8
2018-Feb-20 23:00N 47°34' W 122°21'0 0.0
2018-Feb-20 22:30N 47°34' W 122°21'0 0.7
2018-Feb-20 22:00N 47°34' W 122°21'1 1.6
2018-Feb-20 21:29N 47°33' W 122°21'1 1.4
2018-Feb-20 21:00N 47°33' W 122°20'1 1.2
2018-Feb-20 20:31N 47°33' W 122°21'0 0.2
2018-Feb-20 20:01N 47°33' W 122°21'1 0.0
2018-Feb-19 22:13N 47°34' W 122°21'1 3.1
2018-Feb-19 22:00N 47°33' W 122°21'0 0.2
2018-Feb-19 21:31N 47°33' W 122°21'0 0.7
2018-Feb-19 21:00N 47°33' W 122°20'3 5.4
2018-Feb-19 20:31N 47°35' W 122°22'0 0.7
2018-Feb-19 20:01N 47°35' W 122°22'1 0.1
2018-Feb-19 06:13N 47°34' W 122°21'1 4.5
2018-Feb-19 06:00N 47°33' W 122°21'0 0.2
2018-Feb-19 05:30N 47°33' W 122°21'2 4.1
2018-Feb-19 05:00N 47°35' W 122°21'1 2.2
2018-Feb-19 04:30N 47°34' W 122°21'0 0.0
2018-Feb-18 19:21N 47°34' W 122°21'0 0.2
2018-Feb-18 18:59N 47°34' W 122°21'0 1.0
2018-Feb-18 18:30N 47°34' W 122°21'1 2.3
2018-Feb-18 18:00N 47°33' W 122°21'0 0.1
2018-Feb-18 17:31N 47°33' W 122°21'0 0.0
2018-Feb-18 17:00N 47°33' W 122°21'0 0.0
2018-Feb-18 16:30N 47°33' W 122°21'0 0.0
2018-Feb-18 16:00N 47°33' W 122°21'0 0.0
2018-Feb-18 15:30N 47°33' W 122°21'0 0.0
2018-Feb-18 15:01N 47°33' W 122°21'0 0.0
2018-Feb-18 14:30N 47°33' W 122°21'0 0.0
2018-Feb-18 14:01N 47°33' W 122°21'0 0.0
2018-Feb-18 13:31N 47°33' W 122°21'0 0.0
2018-Feb-18 13:00N 47°33' W 122°21'0 0.0
2018-Feb-18 12:30N 47°33' W 122°21'0 0.0
2018-Feb-18 12:00N 47°33' W 122°21'1 1.6
2018-Feb-18 11:30N 47°34' W 122°21'0 0.0
2018-Feb-18 01:33N 47°34' W 122°21'1 5.8
2018-Feb-18 01:27N 47°34' W 122°21'0 1.0
2018-Feb-18 01:00N 47°33' W 122°21'2 4.5
2018-Feb-18 00:30N 47°35' W 122°22'0 0.9
2018-Feb-18 00:00N 47°36' W 122°22'2 3.6
2018-Feb-17 23:30N 47°34' W 122°21'1 2.7
2018-Feb-17 23:00N 47°35' W 122°22'0 0.9
2018-Feb-17 22:30N 47°35' W 122°22'0 0.3
2018-Feb-17 22:00N 47°35' W 122°22'1 1.6
2018-Feb-17 21:30N 47°34' W 122°21'0 0.1
2018-Feb-17 21:00N 47°34' W 122°21'1 1.9
2018-Feb-17 20:30N 47°33' W 122°20'1 1.6
2018-Feb-17 20:00N 47°32' W 122°20'0 0.8
2018-Feb-17 19:29N 47°33' W 122°20'0 0.8
2018-Feb-17 18:59N 47°32' W 122°20'0 0.9
2018-Feb-17 18:30N 47°33' W 122°20'0 0.5
2018-Feb-17 18:00N 47°33' W 122°20'0 0.0
2018-Feb-17 17:30N 47°33' W 122°20'0 0.4
2018-Feb-17 17:00N 47°33' W 122°21'2 3.7
2018-Feb-17 16:30N 47°35' W 122°22'1 1.9
2018-Feb-17 16:00N 47°34' W 122°21'0 0.0
2018-Feb-17 03:12N 47°34' W 122°21'0 2.0
2018-Feb-17 03:00N 47°34' W 122°21'2 3.5
2018-Feb-17 02:30N 47°33' W 122°20'2 3.4
2018-Feb-17 02:00N 47°34' W 122°21'0 0.7
2018-Feb-17 01:30N 47°34' W 122°21'0 0.6
2018-Feb-17 01:00N 47°34' W 122°21'1 1.2
2018-Feb-17 00:30N 47°33' W 122°20'0 0.3
2018-Feb-17 00:00N 47°33' W 122°21'1 1.8
2018-Feb-16 23:30N 47°34' W 122°21'0 0.0
2018-Feb-16 23:00N 47°34' W 122°21'0 0.0
2018-Feb-16 22:30N 47°34' W 122°21'0 0.8
2018-Feb-16 22:00N 47°34' W 122°21'1 2.7
2018-Feb-16 21:31N 47°35' W 122°22'2 4.4
2018-Feb-16 21:00N 47°34' W 122°21'1 2.7
2018-Feb-16 20:30N 47°35' W 122°22'1 1.7
2018-Feb-16 20:00N 47°34' W 122°21'1 2.6
2018-Feb-16 19:29N 47°33' W 122°20'0 0.1
2018-Feb-16 19:00N 47°33' W 122°20'0 0.0
2018-Feb-16 18:30N 47°33' W 122°20'0 0.1
2018-Feb-16 18:00N 47°33' W 122°20'2 4.2
2018-Feb-16 17:30N 47°35' W 122°22'1 1.2
2018-Feb-16 17:00N 47°35' W 122°21'0 0.1
2018-Feb-16 16:28N 47°35' W 122°21'0 0.0
2018-Feb-16 15:59N 47°35' W 122°21'0 0.0
2018-Feb-16 15:30N 47°35' W 122°21'1 2.1
2018-Feb-16 14:59N 47°34' W 122°21'1 2.6
2018-Feb-16 14:28N 47°33' W 122°20'1 0.0
2018-Feb-16 00:38N 47°34' W 122°21'1 7.2
2018-Feb-16 00:30N 47°33' W 122°20'2 3.3
2018-Feb-16 00:00N 47°34' W 122°21'1 1.7
2018-Feb-15 23:30N 47°35' W 122°22'3 4.9
2018-Feb-15 23:00N 47°33' W 122°20'3 5.8
2018-Feb-15 22:30N 47°35' W 122°21'0 0.2
2018-Feb-15 22:00N 47°35' W 122°21'0 1.0
2018-Feb-15 21:30N 47°35' W 122°22'0 0.1
2018-Feb-15 21:00N 47°35' W 122°22'0 0.0
2018-Feb-15 20:30N 47°35' W 122°22'0 0.0
2018-Feb-15 20:00N 47°35' W 122°22'3 6.5
2018-Feb-15 19:30N 47°32' W 122°20'1 1.6
2018-Feb-15 18:55N 47°33' W 122°21'1 2.2
2018-Feb-15 18:30N 47°32' W 122°20'3 5.1
2018-Feb-15 18:00N 47°35' W 122°22'1 1.1
2018-Feb-15 17:30N 47°35' W 122°21'0 0.0
2018-Feb-15 17:00N 47°35' W 122°21'0 0.0
2018-Feb-15 16:30N 47°35' W 122°21'0 0.0
2018-Feb-15 16:00N 47°35' W 122°21'1 2.4
2018-Feb-15 15:30N 47°34' W 122°21'0 0.0
2018-Feb-15 15:00N 47°34' W 122°21'0 0.0
2018-Feb-15 14:30N 47°34' W 122°21'0 0.0
2018-Feb-15 13:58N 47°34' W 122°21'0 0.0
2018-Feb-15 13:30N 47°34' W 122°21'0 0.0
2018-Feb-15 13:00N 47°34' W 122°21'0 0.0
2018-Feb-15 12:30N 47°34' W 122°21'0 0.0
2018-Feb-15 12:00N 47°34' W 122°21'0 0.0
2018-Feb-15 11:29N 47°34' W 122°21'0 0.0
2018-Feb-15 11:00N 47°34' W 122°21'0 1.0
2018-Feb-15 10:29N 47°34' W 122°21'0 0.3
2018-Feb-15 10:00N 47°33' W 122°21'2 4.2
2018-Feb-15 09:30N 47°35' W 122°22'1 1.2
2018-Feb-15 09:00N 47°35' W 122°22'1 1.8
2018-Feb-15 08:30N 47°34' W 122°21'0 0.0
2018-Feb-15 07:59N 47°34' W 122°21'0 0.0
2018-Feb-15 07:29N 47°34' W 122°21'0 0.0
2018-Feb-15 07:00N 47°34' W 122°21'0 0.0
2018-Feb-15 06:30N 47°34' W 122°21'0 0.0
2018-Feb-15 06:00N 47°34' W 122°21'0 0.0
2018-Feb-15 05:29N 47°34' W 122°21'0 0.0
2018-Feb-15 03:14N 47°34' W 122°21'1 4.8
2018-Feb-15 03:01N 47°33' W 122°20'1 1.9
2018-Feb-15 02:31N 47°34' W 122°21'1 2.6
2018-Feb-15 02:00N 47°35' W 122°21'0 0.7
2018-Feb-15 01:30N 47°35' W 122°21'2 3.0
2018-Feb-15 01:00N 47°34' W 122°21'1 2.4
2018-Feb-15 00:30N 47°35' W 122°22'1 1.1
2018-Feb-15 00:00N 47°35' W 122°22'0 0.0
2018-Feb-14 23:31N 47°35' W 122°22'2 4.4
2018-Feb-14 23:00N 47°33' W 122°21'1 1.4
2018-Feb-14 22:30N 47°33' W 122°20'0 0.7
2018-Feb-14 22:00N 47°32' W 122°20'0 0.1
2018-Feb-14 21:30N 47°33' W 122°20'2 3.9
2018-Feb-14 21:01N 47°34' W 122°21'1 2.1
2018-Feb-14 20:31N 47°35' W 122°21'1 1.9
2018-Feb-14 20:01N 47°35' W 122°22'0 0.0
2018-Feb-14 19:30N 47°35' W 122°22'0 0.0
2018-Feb-14 18:59N 47°35' W 122°22'1 1.9
2018-Feb-14 18:30N 47°35' W 122°21'2 3.5
2018-Feb-14 17:58N 47°33' W 122°21'1 1.5
2018-Feb-14 17:30N 47°33' W 122°20'1 2.5
2018-Feb-14 16:59N 47°34' W 122°21'0 0.5
2018-Feb-14 16:30N 47°34' W 122°21'1 2.3
2018-Feb-14 16:01N 47°35' W 122°21'2 2.9
2018-Feb-14 15:28N 47°34' W 122°21'1 2.2
2018-Feb-14 15:00N 47°33' W 122°20'2 3.0
2018-Feb-14 14:29N 47°34' W 122°21'1 3.1
2018-Feb-14 14:01N 47°36' W 122°22'2 0.2
2018-Feb-14 04:08N 47°34' W 122°21'0 0.0
2018-Feb-14 03:44N 47°34' W 122°21'1 4.0
2018-Feb-14 03:30N 47°33' W 122°20'0 0.7
2018-Feb-14 03:00N 47°33' W 122°20'1 2.0
2018-Feb-14 02:30N 47°32' W 122°19'1 2.3
2018-Feb-14 02:00N 47°33' W 122°20'2 4.9
2018-Feb-14 01:30N 47°35' W 122°22'0 0.1
2018-Feb-14 01:00N 47°35' W 122°22'2 4.0
2018-Feb-14 00:30N 47°33' W 122°21'1 2.3
2018-Feb-14 00:00N 47°34' W 122°21'1 2.2
2018-Feb-13 23:30N 47°33' W 122°21'2 4.8
2018-Feb-13 23:00N 47°35' W 122°22'2 2.3
2018-Feb-13 22:19N 47°34' W 122°21'0 0.0
2018-Feb-13 21:15N 47°34' W 122°21'0 0.0
2018-Feb-13 20:16N 47°34' W 122°21'0 0.0
2018-Feb-13 19:53N 47°34' W 122°21'3 7.2
2018-Feb-13 19:30N 47°36' W 122°24'510.6
2018-Feb-13 19:00N 47°33' W 122°30'1 2.2
2018-Feb-13 18:30N 47°32' W 122°31'3 6.4
2018-Feb-13 18:00N 47°35' W 122°28'4 8.1
2018-Feb-13 17:30N 47°38' W 122°25'4 8.5
2018-Feb-13 17:00N 47°35' W 122°22'2 4.6
2018-Feb-13 16:30N 47°33' W 122°20'2 3.1
2018-Feb-13 16:00N 47°34' W 122°21'2 3.6
2018-Feb-13 15:30N 47°36' W 122°22'2 3.7
2018-Feb-13 15:00N 47°34' W 122°21'0 0.0
2018-Feb-12 23:06N 47°34' W 122°21'1 7.2
2018-Feb-12 23:00N 47°33' W 122°21'0 0.3
2018-Feb-12 22:30N 47°34' W 122°21'2 4.5
2018-Feb-12 22:00N 47°35' W 122°22'2 4.8
2018-Feb-12 21:30N 47°38' W 122°23'2 3.3
2018-Feb-12 21:00N 47°38' W 122°25'2 4.1
2018-Feb-12 20:30N 47°40' W 122°24'1 1.4
2018-Feb-12 20:00N 47°40' W 122°24'1 2.5
2018-Feb-12 19:30N 47°39' W 122°22'0 0.0
2018-Feb-12 19:00N 47°39' W 122°22'0 0.1
2018-Feb-12 18:30N 47°39' W 122°22'1 2.7
2018-Feb-12 18:00N 47°40' W 122°24'2 3.3
2018-Feb-12 17:30N 47°40' W 122°26'5 9.2
2018-Feb-12 17:00N 47°36' W 122°23'3 6.8
2018-Feb-12 16:30N 47°33' W 122°21'1 1.5
2018-Feb-12 15:59N 47°34' W 122°21'1 1.7
2018-Feb-12 15:30N 47°35' W 122°22'1 1.7
2018-Feb-12 15:00N 47°35' W 122°21'1 1.1
2018-Feb-12 14:30N 47°35' W 122°21'1 1.3
2018-Feb-12 14:00N 47°34' W 122°21'1 2.7
2018-Feb-12 13:30N 47°33' W 122°21'3 5.3
2018-Feb-12 13:00N 47°36' W 122°22'2 3.4
2018-Feb-12 12:30N 47°34' W 122°21'  
Track history (hours):
 
Tides and Currents Weather Stations Pressure Air Temp Water Temp Dewpoint Dewpoint Depression Visibility Wind Speed Wind Dir Waves Ship Positions

Westrac II

Owner: WESTERN TOWBOAT COMPANY, SEATTLE, WA. More information available from US FCC via Universal Licensing System and Coast Guard Vessel Documentation Center.

Last reported at 2018-Feb-21 21:01 UTC. Time now 2018-Feb-21 21:24 UTC.
Position N 47°35' W 122°22'.

Type: Tug. MMSI: 366695810.

Date/timePositionNaut miles runAvg speedWind from/ knotsBaromVisibWave heightAir tempDewpointWater temp
2018-Feb-21 21:01N 47°35' W 122°22'1 2.8
2018-Feb-21 20:31N 47°34' W 122°21'0 1.0
2018-Feb-21 20:00N 47°34' W 122°21'0 0.7
2018-Feb-21 19:31N 47°34' W 122°21'0 0.0
2018-Feb-21 19:00N 47°34' W 122°21'1 2.4
2018-Feb-21 18:31N 47°33' W 122°21'1 0.1
2018-Feb-21 04:16N 47°34' W 122°21'1 3.6
2018-Feb-21 04:00N 47°33' W 122°20'1 2.2
2018-Feb-21 03:30N 47°34' W 122°21'1 2.5
2018-Feb-21 03:00N 47°35' W 122°22'1 1.6
2018-Feb-21 02:08N 47°34' W 122°21'0 0.0
2018-Feb-21 01:43N 47°34' W 122°21'0 0.0
2018-Feb-21 01:28N 47°34' W 122°21'0 0.0
2018-Feb-21 00:54N 47°34' W 122°21'0 0.0
2018-Feb-21 00:29N 47°34' W 122°21'0 0.0
2018-Feb-21 00:00N 47°34' W 122°21'0 0.0
2018-Feb-20 23:27N 47°34' W 122°21'0 0.8
2018-Feb-20 23:00N 47°34' W 122°21'0 0.0
2018-Feb-20 22:30N 47°34' W 122°21'0 0.7
2018-Feb-20 22:00N 47°34' W 122°21'1 1.6
2018-Feb-20 21:29N 47°33' W 122°21'1 1.4
2018-Feb-20 21:00N 47°33' W 122°20'1 1.2
2018-Feb-20 20:31N 47°33' W 122°21'0 0.2
2018-Feb-20 20:01N 47°33' W 122°21'1 0.0
2018-Feb-19 22:13N 47°34' W 122°21'1 3.1
2018-Feb-19 22:00N 47°33' W 122°21'0 0.2
2018-Feb-19 21:31N 47°33' W 122°21'0 0.7
2018-Feb-19 21:00N 47°33' W 122°20'3 5.4
2018-Feb-19 20:31N 47°35' W 122°22'0 0.7
2018-Feb-19 20:01N 47°35' W 122°22'1 0.1
2018-Feb-19 06:13N 47°34' W 122°21'1 4.5
2018-Feb-19 06:00N 47°33' W 122°21'0 0.2
2018-Feb-19 05:30N 47°33' W 122°21'2 4.1
2018-Feb-19 05:00N 47°35' W 122°21'1 2.2
2018-Feb-19 04:30N 47°34' W 122°21'0 0.0
2018-Feb-18 19:21N 47°34' W 122°21'0 0.2
2018-Feb-18 18:59N 47°34' W 122°21'0 1.0
2018-Feb-18 18:30N 47°34' W 122°21'1 2.3
2018-Feb-18 18:00N 47°33' W 122°21'0 0.1
2018-Feb-18 17:31N 47°33' W 122°21'0 0.0
2018-Feb-18 17:00N 47°33' W 122°21'0 0.0
2018-Feb-18 16:30N 47°33' W 122°21'0 0.0
2018-Feb-18 16:00N 47°33' W 122°21'0 0.0
2018-Feb-18 15:30N 47°33' W 122°21'0 0.0
2018-Feb-18 15:01N 47°33' W 122°21'0 0.0
2018-Feb-18 14:30N 47°33' W 122°21'0 0.0
2018-Feb-18 14:01N 47°33' W 122°21'0 0.0
2018-Feb-18 13:31N 47°33' W 122°21'0 0.0
2018-Feb-18 13:00N 47°33' W 122°21'0 0.0
2018-Feb-18 12:30N 47°33' W 122°21'0 0.0
2018-Feb-18 12:00N 47°33' W 122°21'1 1.6
2018-Feb-18 11:30N 47°34' W 122°21'0 0.0
2018-Feb-18 01:33N 47°34' W 122°21'1 5.8
2018-Feb-18 01:27N 47°34' W 122°21'0 1.0
2018-Feb-18 01:00N 47°33' W 122°21'2 4.5
2018-Feb-18 00:30N 47°35' W 122°22'0 0.9
2018-Feb-18 00:00N 47°36' W 122°22'2 3.6
2018-Feb-17 23:30N 47°34' W 122°21'1 2.7
2018-Feb-17 23:00N 47°35' W 122°22'0 0.9
2018-Feb-17 22:30N 47°35' W 122°22'0 0.3
2018-Feb-17 22:00N 47°35' W 122°22'1 1.6
2018-Feb-17 21:30N 47°34' W 122°21'0 0.1
2018-Feb-17 21:00N 47°34' W 122°21'1 1.9
2018-Feb-17 20:30N 47°33' W 122°20'1 1.6
2018-Feb-17 20:00N 47°32' W 122°20'0 0.8
2018-Feb-17 19:29N 47°33' W 122°20'0 0.8
2018-Feb-17 18:59N 47°32' W 122°20'0 0.9
2018-Feb-17 18:30N 47°33' W 122°20'0 0.5
2018-Feb-17 18:00N 47°33' W 122°20'0 0.0
2018-Feb-17 17:30N 47°33' W 122°20'0 0.4
2018-Feb-17 17:00N 47°33' W 122°21'2 3.7
2018-Feb-17 16:30N 47°35' W 122°22'1 1.9
2018-Feb-17 16:00N 47°34' W 122°21'0 0.0
2018-Feb-17 03:12N 47°34' W 122°21'0 2.0
2018-Feb-17 03:00N 47°34' W 122°21'2 3.5
2018-Feb-17 02:30N 47°33' W 122°20'2 3.4
2018-Feb-17 02:00N 47°34' W 122°21'0 0.7
2018-Feb-17 01:30N 47°34' W 122°21'0 0.6
2018-Feb-17 01:00N 47°34' W 122°21'1 1.2
2018-Feb-17 00:30N 47°33' W 122°20'0 0.3
2018-Feb-17 00:00N 47°33' W 122°21'1 1.8
2018-Feb-16 23:30N 47°34' W 122°21'0 0.0
2018-Feb-16 23:00N 47°34' W 122°21'0 0.0
2018-Feb-16 22:30N 47°34' W 122°21'0 0.8
2018-Feb-16 22:00N 47°34' W 122°21'1 2.7
2018-Feb-16 21:31N 47°35' W 122°22'2 4.4
2018-Feb-16 21:00N 47°34' W 122°21'1 2.7
2018-Feb-16 20:30N 47°35' W 122°22'1 1.7
2018-Feb-16 20:00N 47°34' W 122°21'1 2.6
2018-Feb-16 19:29N 47°33' W 122°20'0 0.1
2018-Feb-16 19:00N 47°33' W 122°20'0 0.0
2018-Feb-16 18:30N 47°33' W 122°20'0 0.1
2018-Feb-16 18:00N 47°33' W 122°20'2 4.2
2018-Feb-16 17:30N 47°35' W 122°22'1 1.2
2018-Feb-16 17:00N 47°35' W 122°21'0 0.1
2018-Feb-16 16:28N 47°35' W 122°21'0 0.0
2018-Feb-16 15:59N 47°35' W 122°21'0 0.0
2018-Feb-16 15:30N 47°35' W 122°21'1 2.1
2018-Feb-16 14:59N 47°34' W 122°21'1 2.6
2018-Feb-16 14:28N 47°33' W 122°20'1 0.0
2018-Feb-16 00:38N 47°34' W 122°21'1 7.2
2018-Feb-16 00:30N 47°33' W 122°20'2 3.3
2018-Feb-16 00:00N 47°34' W 122°21'1 1.7
2018-Feb-15 23:30N 47°35' W 122°22'3 4.9
2018-Feb-15 23:00N 47°33' W 122°20'3 5.8
2018-Feb-15 22:30N 47°35' W 122°21'0 0.2
2018-Feb-15 22:00N 47°35' W 122°21'0 1.0
2018-Feb-15 21:30N 47°35' W 122°22'0 0.1
2018-Feb-15 21:00N 47°35' W 122°22'0 0.0
2018-Feb-15 20:30N 47°35' W 122°22'0 0.0
2018-Feb-15 20:00N 47°35' W 122°22'3 6.5
2018-Feb-15 19:30N 47°32' W 122°20'1 1.6
2018-Feb-15 18:55N 47°33' W 122°21'1 2.2
2018-Feb-15 18:30N 47°32' W 122°20'3 5.1
2018-Feb-15 18:00N 47°35' W 122°22'1 1.1
2018-Feb-15 17:30N 47°35' W 122°21'0 0.0
2018-Feb-15 17:00N 47°35' W 122°21'0 0.0
2018-Feb-15 16:30N 47°35' W 122°21'0 0.0
2018-Feb-15 16:00N 47°35' W 122°21'1 2.4
2018-Feb-15 15:30N 47°34' W 122°21'0 0.0
2018-Feb-15 15:00N 47°34' W 122°21'0 0.0
2018-Feb-15 14:30N 47°34' W 122°21'0 0.0
2018-Feb-15 13:58N 47°34' W 122°21'0 0.0
2018-Feb-15 13:30N 47°34' W 122°21'0 0.0
2018-Feb-15 13:00N 47°34' W 122°21'0 0.0
2018-Feb-15 12:30N 47°34' W 122°21'0 0.0
2018-Feb-15 12:00N 47°34' W 122°21'0 0.0
2018-Feb-15 11:29N 47°34' W 122°21'0 0.0
2018-Feb-15 11:00N 47°34' W 122°21'0 1.0
2018-Feb-15 10:29N 47°34' W 122°21'0 0.3
2018-Feb-15 10:00N 47°33' W 122°21'2 4.2
2018-Feb-15 09:30N 47°35' W 122°22'1 1.2
2018-Feb-15 09:00N 47°35' W 122°22'1 1.8
2018-Feb-15 08:30N 47°34' W 122°21'0 0.0
2018-Feb-15 07:59N 47°34' W 122°21'0 0.0
2018-Feb-15 07:29N 47°34' W 122°21'0 0.0
2018-Feb-15 07:00N 47°34' W 122°21'0 0.0
2018-Feb-15 06:30N 47°34' W 122°21'0 0.0
2018-Feb-15 06:00N 47°34' W 122°21'0 0.0
2018-Feb-15 05:29N 47°34' W 122°21'0 0.0
2018-Feb-15 03:14N 47°34' W 122°21'1 4.8
2018-Feb-15 03:01N 47°33' W 122°20'1 1.9
2018-Feb-15 02:31N 47°34' W 122°21'1 2.6
2018-Feb-15 02:00N 47°35' W 122°21'0 0.7
2018-Feb-15 01:30N 47°35' W 122°21'2 3.0
2018-Feb-15 01:00N 47°34' W 122°21'1 2.4
2018-Feb-15 00:30N 47°35' W 122°22'1 1.1
2018-Feb-15 00:00N 47°35' W 122°22'0 0.0
2018-Feb-14 23:31N 47°35' W 122°22'2 4.4
2018-Feb-14 23:00N 47°33' W 122°21'1 1.4
2018-Feb-14 22:30N 47°33' W 122°20'0 0.7
2018-Feb-14 22:00N 47°32' W 122°20'0 0.1
2018-Feb-14 21:30N 47°33' W 122°20'2 3.9
2018-Feb-14 21:01N 47°34' W 122°21'1 2.1
2018-Feb-14 20:31N 47°35' W 122°21'1 1.9
2018-Feb-14 20:01N 47°35' W 122°22'0 0.0
2018-Feb-14 19:30N 47°35' W 122°22'0 0.0
2018-Feb-14 18:59N 47°35' W 122°22'1 1.9
2018-Feb-14 18:30N 47°35' W 122°21'2 3.5
2018-Feb-14 17:58N 47°33' W 122°21'1 1.5
2018-Feb-14 17:30N 47°33' W 122°20'1 2.5
2018-Feb-14 16:59N 47°34' W 122°21'0 0.5
2018-Feb-14 16:30N 47°34' W 122°21'1 2.3
2018-Feb-14 16:01N 47°35' W 122°21'2 2.9
2018-Feb-14 15:28N 47°34' W 122°21'1 2.2
2018-Feb-14 15:00N 47°33' W 122°20'2 3.0
2018-Feb-14 14:29N 47°34' W 122°21'1 3.1
2018-Feb-14 14:01N 47°36' W 122°22'2 0.2
2018-Feb-14 04:08N 47°34' W 122°21'0 0.0
2018-Feb-14 03:44N 47°34' W 122°21'1 4.0
2018-Feb-14 03:30N 47°33' W 122°20'0 0.7
2018-Feb-14 03:00N 47°33' W 122°20'1 2.0
2018-Feb-14 02:30N 47°32' W 122°19'1 2.3
2018-Feb-14 02:00N 47°33' W 122°20'2 4.9
2018-Feb-14 01:30N 47°35' W 122°22'0 0.1
2018-Feb-14 01:00N 47°35' W 122°22'2 4.0
2018-Feb-14 00:30N 47°33' W 122°21'1 2.3
2018-Feb-14 00:00N 47°34' W 122°21'1 2.2
2018-Feb-13 23:30N 47°33' W 122°21'2 4.8
2018-Feb-13 23:00N 47°35' W 122°22'2 2.3
2018-Feb-13 22:19N 47°34' W 122°21'0 0.0
2018-Feb-13 21:15N 47°34' W 122°21'0 0.0
2018-Feb-13 20:16N 47°34' W 122°21'0 0.0
2018-Feb-13 19:53N 47°34' W 122°21'3 7.2
2018-Feb-13 19:30N 47°36' W 122°24'510.6
2018-Feb-13 19:00N 47°33' W 122°30'1 2.2
2018-Feb-13 18:30N 47°32' W 122°31'3 6.4
2018-Feb-13 18:00N 47°35' W 122°28'4 8.1
2018-Feb-13 17:30N 47°38' W 122°25'4 8.5
2018-Feb-13 17:00N 47°35' W 122°22'2 4.6
2018-Feb-13 16:30N 47°33' W 122°20'2 3.1
2018-Feb-13 16:00N 47°34' W 122°21'2 3.6
2018-Feb-13 15:30N 47°36' W 122°22'2 3.7
2018-Feb-13 15:00N 47°34' W 122°21'0 0.0
2018-Feb-12 23:06N 47°34' W 122°21'1 7.2
2018-Feb-12 23:00N 47°33' W 122°21'0 0.3
2018-Feb-12 22:30N 47°34' W 122°21'2 4.5
2018-Feb-12 22:00N 47°35' W 122°22'2 4.8
2018-Feb-12 21:30N 47°38' W 122°23'2 3.3
2018-Feb-12 21:00N 47°38' W 122°25'2 4.1
2018-Feb-12 20:30N 47°40' W 122°24'1 1.4
2018-Feb-12 20:00N 47°40' W 122°24'1 2.5
2018-Feb-12 19:30N 47°39' W 122°22'0 0.0
2018-Feb-12 19:00N 47°39' W 122°22'0 0.1
2018-Feb-12 18:30N 47°39' W 122°22'1 2.7
2018-Feb-12 18:00N 47°40' W 122°24'2 3.3
2018-Feb-12 17:30N 47°40' W 122°26'5 9.2
2018-Feb-12 17:00N 47°36' W 122°23'3 6.8
2018-Feb-12 16:30N 47°33' W 122°21'1 1.5
2018-Feb-12 15:59N 47°34' W 122°21'1 1.7
2018-Feb-12 15:30N 47°35' W 122°22'1 1.7
2018-Feb-12 15:00N 47°35' W 122°21'1 1.1
2018-Feb-12 14:30N 47°35' W 122°21'1 1.3
2018-Feb-12 14:00N 47°34' W 122°21'1 2.7
2018-Feb-12 13:30N 47°33' W 122°21'3 5.3
2018-Feb-12 13:00N 47°36' W 122°22'2 3.4
2018-Feb-12 12:30N 47°34' W 122°21'  

Dump ship's entire track history